sensor_id;sensor_type;location;lat;lon;timestamp;temperature;humidity
2435;DHT22;1228;51.022;6.764;2023-05-29T00:01:33;15.10;99.90
2435;DHT22;1228;51.022;6.764;2023-05-29T00:04:01;15.00;99.90
2435;DHT22;1228;51.022;6.764;2023-05-29T00:06:27;14.90;99.90
2435;DHT22;1228;51.022;6.764;2023-05-29T00:08:52;14.90;99.90
2435;DHT22;1228;51.022;6.764;2023-05-29T00:11:18;14.90;99.90
2435;DHT22;1228;51.022;6.764;2023-05-29T00:13:44;14.80;99.90
2435;DHT22;1228;51.022;6.764;2023-05-29T00:16:09;14.70;99.90
2435;DHT22;1228;51.022;6.764;2023-05-29T00:18:35;14.80;99.90
2435;DHT22;1228;51.022;6.764;2023-05-29T00:21:02;14.70;99.90
2435;DHT22;1228;51.022;6.764;2023-05-29T00:23:27;14.60;99.90
2435;DHT22;1228;51.022;6.764;2023-05-29T00:25:53;14.60;99.90
2435;DHT22;1228;51.022;6.764;2023-05-29T00:28:18;14.60;99.90
2435;DHT22;1228;51.022;6.764;2023-05-29T00:30:44;14.50;99.90
2435;DHT22;1228;51.022;6.764;2023-05-29T00:33:10;14.50;99.90
2435;DHT22;1228;51.022;6.764;2023-05-29T00:35:36;14.40;99.90
2435;DHT22;1228;51.022;6.764;2023-05-29T00:38:02;14.40;99.90
2435;DHT22;1228;51.022;6.764;2023-05-29T00:40:27;14.40;99.90
2435;DHT22;1228;51.022;6.764;2023-05-29T00:42:53;14.40;99.90
2435;DHT22;1228;51.022;6.764;2023-05-29T00:45:18;14.40;99.90
2435;DHT22;1228;51.022;6.764;2023-05-29T00:47:44;14.30;99.90
2435;DHT22;1228;51.022;6.764;2023-05-29T00:50:11;14.30;99.90
2435;DHT22;1228;51.022;6.764;2023-05-29T00:52:39;14.20;99.90
2435;DHT22;1228;51.022;6.764;2023-05-29T00:55:06;14.10;99.90
2435;DHT22;1228;51.022;6.764;2023-05-29T00:57:33;14.10;99.90
2435;DHT22;1228;51.022;6.764;2023-05-29T01:00:00;14.10;99.90
2435;DHT22;1228;51.022;6.764;2023-05-29T01:02:28;14.00;99.90
2435;DHT22;1228;51.022;6.764;2023-05-29T01:04:56;13.90;99.90
2435;DHT22;1228;51.022;6.764;2023-05-29T01:07:22;13.90;99.90
2435;DHT22;1228;51.022;6.764;2023-05-29T01:09:47;13.80;99.90
2435;DHT22;1228;51.022;6.764;2023-05-29T01:15:28;13.80;99.90
2435;DHT22;1228;51.022;6.764;2023-05-29T01:18:25;13.70;99.90
2435;DHT22;1228;51.022;6.764;2023-05-29T01:27:07;13.60;99.90
2435;DHT22;1228;51.022;6.764;2023-05-29T01:29:38;13.50;99.90
2435;DHT22;1228;51.022;6.764;2023-05-29T01:32:04;13.40;99.90
2435;DHT22;1228;51.022;6.764;2023-05-29T01:34:30;13.40;99.90
2435;DHT22;1228;51.022;6.764;2023-05-29T01:36:56;13.30;99.90
2435;DHT22;1228;51.022;6.764;2023-05-29T01:39:22;13.30;99.90
2435;DHT22;1228;51.022;6.764;2023-05-29T01:41:48;13.30;99.90
2435;DHT22;1228;51.022;6.764;2023-05-29T01:44:14;13.20;99.90
2435;DHT22;1228;51.022;6.764;2023-05-29T01:46:41;13.30;99.90
2435;DHT22;1228;51.022;6.764;2023-05-29T01:49:07;13.20;99.90
2435;DHT22;1228;51.022;6.764;2023-05-29T01:51:33;13.20;99.90
2435;DHT22;1228;51.022;6.764;2023-05-29T01:53:59;13.20;99.90
2435;DHT22;1228;51.022;6.764;2023-05-29T01:56:27;13.10;99.90
2435;DHT22;1228;51.022;6.764;2023-05-29T01:58:54;13.10;99.90
2435;DHT22;1228;51.022;6.764;2023-05-29T02:01:21;13.10;99.90
2435;DHT22;1228;51.022;6.764;2023-05-29T02:03:47;13.00;99.90
2435;DHT22;1228;51.022;6.764;2023-05-29T02:06:12;13.00;99.90
2435;DHT22;1228;51.022;6.764;2023-05-29T02:08:38;13.00;99.90
2435;DHT22;1228;51.022;6.764;2023-05-29T02:11:03;12.90;99.90
2435;DHT22;1228;51.022;6.764;2023-05-29T02:13:29;12.90;99.90
2435;DHT22;1228;51.022;6.764;2023-05-29T02:15:55;12.80;99.90
2435;DHT22;1228;51.022;6.764;2023-05-29T02:18:20;12.80;99.90
2435;DHT22;1228;51.022;6.764;2023-05-29T02:20:46;12.80;99.90
2435;DHT22;1228;51.022;6.764;2023-05-29T02:23:12;12.80;99.90
2435;DHT22;1228;51.022;6.764;2023-05-29T02:25:38;12.70;99.90
2435;DHT22;1228;51.022;6.764;2023-05-29T02:28:04;12.70;99.90
2435;DHT22;1228;51.022;6.764;2023-05-29T02:30:30;12.70;99.90
2435;DHT22;1228;51.022;6.764;2023-05-29T02:32:56;12.70;99.90
2435;DHT22;1228;51.022;6.764;2023-05-29T02:35:21;12.60;99.90
2435;DHT22;1228;51.022;6.764;2023-05-29T02:37:52;12.50;99.90
2435;DHT22;1228;51.022;6.764;2023-05-29T02:40:18;12.50;99.90
2435;DHT22;1228;51.022;6.764;2023-05-29T02:42:44;12.50;99.90
2435;DHT22;1228;51.022;6.764;2023-05-29T02:45:10;12.40;99.90
2435;DHT22;1228;51.022;6.764;2023-05-29T02:47:36;12.40;99.90
2435;DHT22;1228;51.022;6.764;2023-05-29T02:50:03;12.40;99.90
2435;DHT22;1228;51.022;6.764;2023-05-29T02:52:28;12.30;99.90
2435;DHT22;1228;51.022;6.764;2023-05-29T02:54:56;12.30;99.90
2435;DHT22;1228;51.022;6.764;2023-05-29T02:57:22;12.20;99.90
2435;DHT22;1228;51.022;6.764;2023-05-29T02:59:47;12.20;99.90
2435;DHT22;1228;51.022;6.764;2023-05-29T03:02:13;12.20;99.90
2435;DHT22;1228;51.022;6.764;2023-05-29T03:04:38;12.20;99.90
2435;DHT22;1228;51.022;6.764;2023-05-29T03:07:05;12.10;99.90
2435;DHT22;1228;51.022;6.764;2023-05-29T03:09:32;12.00;99.90
2435;DHT22;1228;51.022;6.764;2023-05-29T03:11:57;12.00;99.90
2435;DHT22;1228;51.022;6.764;2023-05-29T03:14:23;11.90;99.90
2435;DHT22;1228;51.022;6.764;2023-05-29T03:16:49;11.90;99.90
2435;DHT22;1228;51.022;6.764;2023-05-29T03:19:16;11.80;99.90
2435;DHT22;1228;51.022;6.764;2023-05-29T03:21:41;11.80;99.90
2435;DHT22;1228;51.022;6.764;2023-05-29T03:24:07;11.80;99.90
2435;DHT22;1228;51.022;6.764;2023-05-29T03:26:32;11.70;99.90
2435;DHT22;1228;51.022;6.764;2023-05-29T03:28:58;11.70;99.90
2435;DHT22;1228;51.022;6.764;2023-05-29T03:31:24;11.70;99.90
2435;DHT22;1228;51.022;6.764;2023-05-29T03:33:50;11.70;99.90
2435;DHT22;1228;51.022;6.764;2023-05-29T03:36:15;11.70;99.90
2435;DHT22;1228;51.022;6.764;2023-05-29T03:38:44;11.70;99.90
2435;DHT22;1228;51.022;6.764;2023-05-29T03:41:10;11.60;99.90
2435;DHT22;1228;51.022;6.764;2023-05-29T03:43:35;11.60;99.90
2435;DHT22;1228;51.022;6.764;2023-05-29T03:46:02;11.60;99.90
2435;DHT22;1228;51.022;6.764;2023-05-29T03:48:27;11.60;99.90
2435;DHT22;1228;51.022;6.764;2023-05-29T03:50:53;11.60;99.90
2435;DHT22;1228;51.022;6.764;2023-05-29T03:53:19;11.60;99.90
2435;DHT22;1228;51.022;6.764;2023-05-29T03:55:44;11.50;99.90
2435;DHT22;1228;51.022;6.764;2023-05-29T03:58:10;11.60;99.90
2435;DHT22;1228;51.022;6.764;2023-05-29T04:00:38;11.60;99.90
2435;DHT22;1228;51.022;6.764;2023-05-29T04:03:04;11.60;99.90
2435;DHT22;1228;51.022;6.764;2023-05-29T04:05:30;11.60;99.90
2435;DHT22;1228;51.022;6.764;2023-05-29T04:07:56;11.60;99.90
2435;DHT22;1228;51.022;6.764;2023-05-29T04:10:21;11.60;99.90
2435;DHT22;1228;51.022;6.764;2023-05-29T04:12:47;11.60;99.90
2435;DHT22;1228;51.022;6.764;2023-05-29T04:15:13;11.60;99.90
2435;DHT22;1228;51.022;6.764;2023-05-29T04:17:38;11.60;99.90
2435;DHT22;1228;51.022;6.764;2023-05-29T04:20:04;11.70;99.90
2435;DHT22;1228;51.022;6.764;2023-05-29T04:22:35;11.70;99.90
2435;DHT22;1228;51.022;6.764;2023-05-29T04:25:01;11.70;99.90
2435;DHT22;1228;51.022;6.764;2023-05-29T04:27:29;11.80;99.90
2435;DHT22;1228;51.022;6.764;2023-05-29T04:29:55;11.80;99.90
2435;DHT22;1228;51.022;6.764;2023-05-29T04:32:21;11.80;99.90
2435;DHT22;1228;51.022;6.764;2023-05-29T04:34:47;11.90;99.90
2435;DHT22;1228;51.022;6.764;2023-05-29T04:37:13;11.90;99.90
2435;DHT22;1228;51.022;6.764;2023-05-29T04:39:39;12.00;99.90
2435;DHT22;1228;51.022;6.764;2023-05-29T04:42:05;12.00;99.90
2435;DHT22;1228;51.022;6.764;2023-05-29T04:44:31;12.10;99.90
2435;DHT22;1228;51.022;6.764;2023-05-29T04:46:56;12.10;99.90
2435;DHT22;1228;51.022;6.764;2023-05-29T04:49:22;12.20;99.90
2435;DHT22;1228;51.022;6.764;2023-05-29T04:51:48;12.30;99.90
2435;DHT22;1228;51.022;6.764;2023-05-29T04:54:13;12.40;99.90
2435;DHT22;1228;51.022;6.764;2023-05-29T04:56:39;12.50;99.90
2435;DHT22;1228;51.022;6.764;2023-05-29T04:59:06;12.80;99.90
2435;DHT22;1228;51.022;6.764;2023-05-29T05:01:32;13.10;99.90
2435;DHT22;1228;51.022;6.764;2023-05-29T05:04:00;13.20;99.90
2435;DHT22;1228;51.022;6.764;2023-05-29T05:06:25;13.50;99.90
2435;DHT22;1228;51.022;6.764;2023-05-29T05:08:51;13.60;99.90
2435;DHT22;1228;51.022;6.764;2023-05-29T05:11:22;13.90;99.90
2435;DHT22;1228;51.022;6.764;2023-05-29T05:13:48;14.00;99.90
2435;DHT22;1228;51.022;6.764;2023-05-29T05:16:14;14.10;99.90
2435;DHT22;1228;51.022;6.764;2023-05-29T05:18:40;14.20;99.90
2435;DHT22;1228;51.022;6.764;2023-05-29T05:21:05;14.30;99.90
2435;DHT22;1228;51.022;6.764;2023-05-29T05:23:32;14.30;99.90
2435;DHT22;1228;51.022;6.764;2023-05-29T05:25:57;14.30;99.90
2435;DHT22;1228;51.022;6.764;2023-05-29T05:28:23;14.40;99.90
2435;DHT22;1228;51.022;6.764;2023-05-29T05:30:49;14.40;99.90
2435;DHT22;1228;51.022;6.764;2023-05-29T05:33:14;14.40;99.90
2435;DHT22;1228;51.022;6.764;2023-05-29T05:35:40;14.40;99.90
2435;DHT22;1228;51.022;6.764;2023-05-29T05:38:05;14.30;99.90
2435;DHT22;1228;51.022;6.764;2023-05-29T05:40:32;14.40;99.90
2435;DHT22;1228;51.022;6.764;2023-05-29T05:42:58;14.40;99.90
2435;DHT22;1228;51.022;6.764;2023-05-29T05:45:23;14.50;99.90
2435;DHT22;1228;51.022;6.764;2023-05-29T05:47:49;14.70;99.90
2435;DHT22;1228;51.022;6.764;2023-05-29T05:50:15;14.90;99.90
2435;DHT22;1228;51.022;6.764;2023-05-29T05:52:41;15.10;99.90
2435;DHT22;1228;51.022;6.764;2023-05-29T05:55:07;15.40;99.90
2435;DHT22;1228;51.022;6.764;2023-05-29T05:57:33;15.50;99.90
2435;DHT22;1228;51.022;6.764;2023-05-29T05:59:59;15.60;99.90
2435;DHT22;1228;51.022;6.764;2023-05-29T06:02:25;15.90;99.90
2435;DHT22;1228;51.022;6.764;2023-05-29T06:04:51;16.20;99.90
2435;DHT22;1228;51.022;6.764;2023-05-29T06:07:17;16.30;99.90
2435;DHT22;1228;51.022;6.764;2023-05-29T06:09:43;16.40;99.90
2435;DHT22;1228;51.022;6.764;2023-05-29T06:12:09;16.50;99.90
2435;DHT22;1228;51.022;6.764;2023-05-29T06:14:35;16.70;99.90
2435;DHT22;1228;51.022;6.764;2023-05-29T06:17:00;17.00;99.90
2435;DHT22;1228;51.022;6.764;2023-05-29T06:19:26;17.30;99.90
2435;DHT22;1228;51.022;6.764;2023-05-29T06:21:52;17.30;99.90
2435;DHT22;1228;51.022;6.764;2023-05-29T06:24:18;17.50;99.90
2435;DHT22;1228;51.022;6.764;2023-05-29T06:26:43;17.70;99.90
2435;DHT22;1228;51.022;6.764;2023-05-29T06:29:09;17.80;99.90
2435;DHT22;1228;51.022;6.764;2023-05-29T06:31:34;17.80;99.90
2435;DHT22;1228;51.022;6.764;2023-05-29T06:34:00;17.80;99.90
2435;DHT22;1228;51.022;6.764;2023-05-29T06:36:25;17.70;99.90
2435;DHT22;1228;51.022;6.764;2023-05-29T06:38:51;17.70;99.90
2435;DHT22;1228;51.022;6.764;2023-05-29T06:41:17;17.80;99.90
2435;DHT22;1228;51.022;6.764;2023-05-29T06:43:43;17.90;99.90
2435;DHT22;1228;51.022;6.764;2023-05-29T06:46:09;18.00;99.90
2435;DHT22;1228;51.022;6.764;2023-05-29T06:48:35;18.30;99.90
2435;DHT22;1228;51.022;6.764;2023-05-29T06:51:01;18.40;99.90
2435;DHT22;1228;51.022;6.764;2023-05-29T06:53:29;18.90;99.90
2435;DHT22;1228;51.022;6.764;2023-05-29T06:55:54;19.30;99.90
2435;DHT22;1228;51.022;6.764;2023-05-29T06:58:20;19.60;99.90
2435;DHT22;1228;51.022;6.764;2023-05-29T07:00:45;19.90;99.90
2435;DHT22;1228;51.022;6.764;2023-05-29T07:03:11;20.00;99.90
2435;DHT22;1228;51.022;6.764;2023-05-29T07:05:36;20.30;99.90
2435;DHT22;1228;51.022;6.764;2023-05-29T07:08:02;20.30;99.90
2435;DHT22;1228;51.022;6.764;2023-05-29T07:10:27;20.50;99.90
2435;DHT22;1228;51.022;6.764;2023-05-29T07:12:53;20.50;99.90
2435;DHT22;1228;51.022;6.764;2023-05-29T07:15:19;20.30;99.90
2435;DHT22;1228;51.022;6.764;2023-05-29T07:17:44;20.40;99.90
2435;DHT22;1228;51.022;6.764;2023-05-29T07:20:10;20.50;99.90
2435;DHT22;1228;51.022;6.764;2023-05-29T07:22:36;20.60;99.90
2435;DHT22;1228;51.022;6.764;2023-05-29T07:25:03;20.70;99.90
2435;DHT22;1228;51.022;6.764;2023-05-29T07:27:29;20.80;99.90
2435;DHT22;1228;51.022;6.764;2023-05-29T07:29:54;21.10;99.90
2435;DHT22;1228;51.022;6.764;2023-05-29T07:32:20;20.80;99.90
2435;DHT22;1228;51.022;6.764;2023-05-29T07:34:47;20.70;99.90
2435;DHT22;1228;51.022;6.764;2023-05-29T07:37:15;20.70;99.90
2435;DHT22;1228;51.022;6.764;2023-05-29T07:39:40;20.70;99.90
2435;DHT22;1228;51.022;6.764;2023-05-29T07:42:06;20.90;99.90
2435;DHT22;1228;51.022;6.764;2023-05-29T07:44:32;21.10;99.90
2435;DHT22;1228;51.022;6.764;2023-05-29T07:46:57;21.20;99.90
2435;DHT22;1228;51.022;6.764;2023-05-29T07:49:23;21.50;99.90
2435;DHT22;1228;51.022;6.764;2023-05-29T07:51:49;22.00;99.90
2435;DHT22;1228;51.022;6.764;2023-05-29T07:54:14;22.20;99.90
2435;DHT22;1228;51.022;6.764;2023-05-29T07:56:43;22.20;99.90
2435;DHT22;1228;51.022;6.764;2023-05-29T07:59:09;22.10;99.90
2435;DHT22;1228;51.022;6.764;2023-05-29T08:01:36;21.90;99.90
2435;DHT22;1228;51.022;6.764;2023-05-29T08:04:02;21.60;99.90
2435;DHT22;1228;51.022;6.764;2023-05-29T08:06:28;21.70;99.90
2435;DHT22;1228;51.022;6.764;2023-05-29T08:08:53;21.60;99.90
2435;DHT22;1228;51.022;6.764;2023-05-29T08:11:22;21.30;99.90
2435;DHT22;1228;51.022;6.764;2023-05-29T08:13:47;21.50;99.90
2435;DHT22;1228;51.022;6.764;2023-05-29T08:16:13;21.90;99.90
2435;DHT22;1228;51.022;6.764;2023-05-29T08:18:41;22.50;99.90
2435;DHT22;1228;51.022;6.764;2023-05-29T08:21:06;22.30;99.90
2435;DHT22;1228;51.022;6.764;2023-05-29T08:23:32;22.20;99.90
2435;DHT22;1228;51.022;6.764;2023-05-29T08:25:58;22.40;99.90
2435;DHT22;1228;51.022;6.764;2023-05-29T08:28:23;22.70;99.90
2435;DHT22;1228;51.022;6.764;2023-05-29T08:30:49;23.30;99.90
2435;DHT22;1228;51.022;6.764;2023-05-29T08:33:15;23.50;99.90
2435;DHT22;1228;51.022;6.764;2023-05-29T08:35:40;23.60;99.90
2435;DHT22;1228;51.022;6.764;2023-05-29T08:38:06;23.10;99.90
2435;DHT22;1228;51.022;6.764;2023-05-29T08:40:32;23.30;99.90
2435;DHT22;1228;51.022;6.764;2023-05-29T08:43:02;23.40;99.90
2435;DHT22;1228;51.022;6.764;2023-05-29T08:45:29;23.20;99.90
2435;DHT22;1228;51.022;6.764;2023-05-29T08:47:55;22.70;99.90
2435;DHT22;1228;51.022;6.764;2023-05-29T08:50:23;22.40;99.90
2435;DHT22;1228;51.022;6.764;2023-05-29T08:52:49;22.40;99.90
2435;DHT22;1228;51.022;6.764;2023-05-29T08:55:16;22.50;99.90
2435;DHT22;1228;51.022;6.764;2023-05-29T08:57:42;22.70;99.90
2435;DHT22;1228;51.022;6.764;2023-05-29T09:00:09;22.80;99.90
2435;DHT22;1228;51.022;6.764;2023-05-29T09:02:41;22.80;99.90
2435;DHT22;1228;51.022;6.764;2023-05-29T09:05:09;23.30;99.90
2435;DHT22;1228;51.022;6.764;2023-05-29T09:07:36;23.60;99.90
2435;DHT22;1228;51.022;6.764;2023-05-29T09:10:13;23.30;99.90
2435;DHT22;1228;51.022;6.764;2023-05-29T09:12:41;23.50;99.90
2435;DHT22;1228;51.022;6.764;2023-05-29T09:15:19;23.30;99.90
2435;DHT22;1228;51.022;6.764;2023-05-29T09:17:56;23.60;99.90
2435;DHT22;1228;51.022;6.764;2023-05-29T09:20:25;23.90;99.90
2435;DHT22;1228;51.022;6.764;2023-05-29T09:22:59;23.90;99.90
2435;DHT22;1228;51.022;6.764;2023-05-29T09:25:28;23.50;99.90
2435;DHT22;1228;51.022;6.764;2023-05-29T09:28:04;23.20;99.90
2435;DHT22;1228;51.022;6.764;2023-05-29T09:30:50;23.00;99.90
2435;DHT22;1228;51.022;6.764;2023-05-29T09:33:17;22.90;99.90
2435;DHT22;1228;51.022;6.764;2023-05-29T09:35:45;23.00;99.90
2435;DHT22;1228;51.022;6.764;2023-05-29T09:38:12;23.20;99.90
2435;DHT22;1228;51.022;6.764;2023-05-29T09:40:39;23.40;99.90
2435;DHT22;1228;51.022;6.764;2023-05-29T09:43:10;23.40;99.90
2435;DHT22;1228;51.022;6.764;2023-05-29T09:45:43;23.50;99.90
2435;DHT22;1228;51.022;6.764;2023-05-29T09:48:22;23.50;99.90
2435;DHT22;1228;51.022;6.764;2023-05-29T09:50:48;23.50;99.90
2435;DHT22;1228;51.022;6.764;2023-05-29T09:55:47;23.20;99.90
2435;DHT22;1228;51.022;6.764;2023-05-29T09:58:14;23.10;99.90
2435;DHT22;1228;51.022;6.764;2023-05-29T10:00:41;23.10;99.90
2435;DHT22;1228;51.022;6.764;2023-05-29T10:03:07;23.10;99.90
2435;DHT22;1228;51.022;6.764;2023-05-29T10:05:32;22.90;99.90
2435;DHT22;1228;51.022;6.764;2023-05-29T10:07:59;23.10;99.90
2435;DHT22;1228;51.022;6.764;2023-05-29T10:10:27;23.50;99.90
2435;DHT22;1228;51.022;6.764;2023-05-29T10:12:53;23.60;99.90
2435;DHT22;1228;51.022;6.764;2023-05-29T10:15:23;24.10;99.90
2435;DHT22;1228;51.022;6.764;2023-05-29T10:18:37;24.40;99.90
2435;DHT22;1228;51.022;6.764;2023-05-29T10:21:04;24.70;99.90
2435;DHT22;1228;51.022;6.764;2023-05-29T10:23:32;25.00;99.90
2435;DHT22;1228;51.022;6.764;2023-05-29T10:26:24;25.10;99.90
2435;DHT22;1228;51.022;6.764;2023-05-29T10:37:15;25.10;99.90
2435;DHT22;1228;51.022;6.764;2023-05-29T10:39:43;25.20;99.90
2435;DHT22;1228;51.022;6.764;2023-05-29T10:45:06;25.70;99.90
2435;DHT22;1228;51.022;6.764;2023-05-29T10:47:31;25.50;99.90
2435;DHT22;1228;51.022;6.764;2023-05-29T10:50:01;25.10;99.90
2435;DHT22;1228;51.022;6.764;2023-05-29T10:52:34;24.80;99.90
2435;DHT22;1228;51.022;6.764;2023-05-29T10:55:01;25.00;99.90
2435;DHT22;1228;51.022;6.764;2023-05-29T10:57:29;24.90;99.90
2435;DHT22;1228;51.022;6.764;2023-05-29T11:00:02;24.90;99.90
2435;DHT22;1228;51.022;6.764;2023-05-29T11:02:30;25.00;99.90
2435;DHT22;1228;51.022;6.764;2023-05-29T11:05:24;25.20;99.90
2435;DHT22;1228;51.022;6.764;2023-05-29T11:08:00;25.50;99.90
2435;DHT22;1228;51.022;6.764;2023-05-29T11:11:04;25.80;99.90
2435;DHT22;1228;51.022;6.764;2023-05-29T11:13:35;25.90;99.90
2435;DHT22;1228;51.022;6.764;2023-05-29T11:16:35;25.80;99.90
2435;DHT22;1228;51.022;6.764;2023-05-29T11:19:07;25.90;99.90
2435;DHT22;1228;51.022;6.764;2023-05-29T11:24:27;25.90;99.90
2435;DHT22;1228;51.022;6.764;2023-05-29T11:26:54;26.10;99.90
2435;DHT22;1228;51.022;6.764;2023-05-29T11:29:26;25.90;99.90
2435;DHT22;1228;51.022;6.764;2023-05-29T11:31:58;25.80;99.90
2435;DHT22;1228;51.022;6.764;2023-05-29T11:34:28;25.90;99.90
2435;DHT22;1228;51.022;6.764;2023-05-29T11:36:59;26.40;99.90
2435;DHT22;1228;51.022;6.764;2023-05-29T11:39:26;26.30;99.90
2435;DHT22;1228;51.022;6.764;2023-05-29T11:41:52;25.70;99.90
2435;DHT22;1228;51.022;6.764;2023-05-29T11:44:20;25.70;99.90
2435;DHT22;1228;51.022;6.764;2023-05-29T11:47:02;25.50;99.90
2435;DHT22;1228;51.022;6.764;2023-05-29T11:49:32;25.30;99.90
2435;DHT22;1228;51.022;6.764;2023-05-29T11:52:06;25.50;99.90
2435;DHT22;1228;51.022;6.764;2023-05-29T11:54:33;25.80;99.90
2435;DHT22;1228;51.022;6.764;2023-05-29T11:57:00;26.00;99.90
2435;DHT22;1228;51.022;6.764;2023-05-29T11:59:30;25.90;99.90
2435;DHT22;1228;51.022;6.764;2023-05-29T12:01:56;25.80;99.90
2435;DHT22;1228;51.022;6.764;2023-05-29T12:04:22;25.60;99.90
2435;DHT22;1228;51.022;6.764;2023-05-29T12:06:47;25.60;99.90
2435;DHT22;1228;51.022;6.764;2023-05-29T12:09:29;25.60;99.90
2435;DHT22;1228;51.022;6.764;2023-05-29T12:12:02;25.50;99.90
2435;DHT22;1228;51.022;6.764;2023-05-29T12:14:28;25.70;99.90
2435;DHT22;1228;51.022;6.764;2023-05-29T12:16:53;26.00;99.90
2435;DHT22;1228;51.022;6.764;2023-05-29T12:19:19;26.10;99.90
2435;DHT22;1228;51.022;6.764;2023-05-29T12:21:45;26.40;99.90
2435;DHT22;1228;51.022;6.764;2023-05-29T12:24:11;26.30;99.90
2435;DHT22;1228;51.022;6.764;2023-05-29T12:26:36;26.10;99.90
2435;DHT22;1228;51.022;6.764;2023-05-29T12:29:05;26.00;99.90
2435;DHT22;1228;51.022;6.764;2023-05-29T12:31:31;25.80;99.90
2435;DHT22;1228;51.022;6.764;2023-05-29T12:34:02;25.60;99.90
2435;DHT22;1228;51.022;6.764;2023-05-29T12:36:32;25.20;99.90
2435;DHT22;1228;51.022;6.764;2023-05-29T12:38:58;25.30;99.90
2435;DHT22;1228;51.022;6.764;2023-05-29T12:41:25;25.40;99.90
2435;DHT22;1228;51.022;6.764;2023-05-29T12:43:56;25.60;99.90
2435;DHT22;1228;51.022;6.764;2023-05-29T12:46:23;25.40;99.90
2435;DHT22;1228;51.022;6.764;2023-05-29T12:48:48;25.40;99.90
2435;DHT22;1228;51.022;6.764;2023-05-29T12:51:17;25.60;99.90
2435;DHT22;1228;51.022;6.764;2023-05-29T12:53:43;25.70;99.90
2435;DHT22;1228;51.022;6.764;2023-05-29T12:56:09;25.70;99.90
2435;DHT22;1228;51.022;6.764;2023-05-29T12:58:34;25.70;99.90
2435;DHT22;1228;51.022;6.764;2023-05-29T13:01:00;26.00;99.90
2435;DHT22;1228;51.022;6.764;2023-05-29T13:03:26;25.90;99.90
2435;DHT22;1228;51.022;6.764;2023-05-29T13:05:52;26.10;99.90
2435;DHT22;1228;51.022;6.764;2023-05-29T13:08:19;26.20;99.90
2435;DHT22;1228;51.022;6.764;2023-05-29T13:10:45;25.90;99.90
2435;DHT22;1228;51.022;6.764;2023-05-29T13:13:11;25.80;99.90
2435;DHT22;1228;51.022;6.764;2023-05-29T13:15:37;25.80;99.90
2435;DHT22;1228;51.022;6.764;2023-05-29T13:18:06;25.50;99.90
2435;DHT22;1228;51.022;6.764;2023-05-29T13:20:31;25.40;99.90
2435;DHT22;1228;51.022;6.764;2023-05-29T13:22:57;25.40;99.90
2435;DHT22;1228;51.022;6.764;2023-05-29T13:25:23;25.30;99.90
2435;DHT22;1228;51.022;6.764;2023-05-29T13:27:51;25.40;99.90
2435;DHT22;1228;51.022;6.764;2023-05-29T13:30:17;25.40;99.90
2435;DHT22;1228;51.022;6.764;2023-05-29T13:32:42;25.60;99.90
2435;DHT22;1228;51.022;6.764;2023-05-29T13:35:09;25.50;99.90
2435;DHT22;1228;51.022;6.764;2023-05-29T13:37:36;25.40;99.90
2435;DHT22;1228;51.022;6.764;2023-05-29T13:40:02;25.40;99.90
2435;DHT22;1228;51.022;6.764;2023-05-29T13:42:29;25.70;99.90
2435;DHT22;1228;51.022;6.764;2023-05-29T13:44:54;25.90;99.90
2435;DHT22;1228;51.022;6.764;2023-05-29T13:47:20;26.20;99.90
2435;DHT22;1228;51.022;6.764;2023-05-29T13:49:46;25.90;99.90
2435;DHT22;1228;51.022;6.764;2023-05-29T13:52:11;26.00;99.90
2435;DHT22;1228;51.022;6.764;2023-05-29T13:54:38;26.30;99.90
2435;DHT22;1228;51.022;6.764;2023-05-29T13:57:04;26.50;99.90
2435;DHT22;1228;51.022;6.764;2023-05-29T13:59:34;26.40;99.90
2435;DHT22;1228;51.022;6.764;2023-05-29T14:02:01;26.40;99.90
2435;DHT22;1228;51.022;6.764;2023-05-29T14:04:29;25.90;99.90
2435;DHT22;1228;51.022;6.764;2023-05-29T14:06:55;25.70;99.90
2435;DHT22;1228;51.022;6.764;2023-05-29T14:09:24;25.70;99.90
2435;DHT22;1228;51.022;6.764;2023-05-29T14:11:59;25.70;99.90
2435;DHT22;1228;51.022;6.764;2023-05-29T14:14:26;25.60;99.90
2435;DHT22;1228;51.022;6.764;2023-05-29T14:16:52;25.40;99.90
2435;DHT22;1228;51.022;6.764;2023-05-29T14:19:18;25.30;99.90
2435;DHT22;1228;51.022;6.764;2023-05-29T14:21:44;25.30;99.90
2435;DHT22;1228;51.022;6.764;2023-05-29T14:24:10;25.40;99.90
2435;DHT22;1228;51.022;6.764;2023-05-29T14:26:36;25.40;99.90
2435;DHT22;1228;51.022;6.764;2023-05-29T14:29:02;25.60;99.90
2435;DHT22;1228;51.022;6.764;2023-05-29T14:31:28;25.40;99.90
2435;DHT22;1228;51.022;6.764;2023-05-29T14:33:54;25.00;99.90
2435;DHT22;1228;51.022;6.764;2023-05-29T14:36:19;24.90;99.90
2435;DHT22;1228;51.022;6.764;2023-05-29T14:38:45;24.80;99.90
2435;DHT22;1228;51.022;6.764;2023-05-29T14:41:11;24.90;99.90
2435;DHT22;1228;51.022;6.764;2023-05-29T14:43:42;24.70;99.90
2435;DHT22;1228;51.022;6.764;2023-05-29T14:46:08;24.50;99.90
2435;DHT22;1228;51.022;6.764;2023-05-29T14:48:33;24.80;99.90
2435;DHT22;1228;51.022;6.764;2023-05-29T14:50:59;24.80;99.90
2435;DHT22;1228;51.022;6.764;2023-05-29T14:53:24;24.90;99.90
2435;DHT22;1228;51.022;6.764;2023-05-29T14:55:50;24.90;99.90
2435;DHT22;1228;51.022;6.764;2023-05-29T14:58:16;24.80;99.90
2435;DHT22;1228;51.022;6.764;2023-05-29T15:00:41;24.80;99.90
2435;DHT22;1228;51.022;6.764;2023-05-29T15:03:07;24.80;99.90
2435;DHT22;1228;51.022;6.764;2023-05-29T15:05:32;24.70;99.90
2435;DHT22;1228;51.022;6.764;2023-05-29T15:07:58;24.60;99.90
2435;DHT22;1228;51.022;6.764;2023-05-29T15:10:28;24.70;99.90
2435;DHT22;1228;51.022;6.764;2023-05-29T15:12:54;24.90;99.90
2435;DHT22;1228;51.022;6.764;2023-05-29T15:15:29;24.90;99.90
2435;DHT22;1228;51.022;6.764;2023-05-29T15:17:55;25.00;99.90
2435;DHT22;1228;51.022;6.764;2023-05-29T15:20:24;24.80;99.90
2435;DHT22;1228;51.022;6.764;2023-05-29T15:22:50;24.50;99.90
2435;DHT22;1228;51.022;6.764;2023-05-29T15:25:17;24.40;99.90
2435;DHT22;1228;51.022;6.764;2023-05-29T15:27:43;24.50;99.90
2435;DHT22;1228;51.022;6.764;2023-05-29T15:30:18;24.40;99.90
2435;DHT22;1228;51.022;6.764;2023-05-29T15:32:45;24.30;99.90
2435;DHT22;1228;51.022;6.764;2023-05-29T15:35:13;24.20;99.90
2435;DHT22;1228;51.022;6.764;2023-05-29T15:37:42;24.30;99.90
2435;DHT22;1228;51.022;6.764;2023-05-29T15:40:08;24.30;99.90
2435;DHT22;1228;51.022;6.764;2023-05-29T15:42:35;24.10;99.90
2435;DHT22;1228;51.022;6.764;2023-05-29T15:45:02;24.10;99.90
2435;DHT22;1228;51.022;6.764;2023-05-29T15:47:28;23.70;99.90
2435;DHT22;1228;51.022;6.764;2023-05-29T15:49:54;23.60;99.90
2435;DHT22;1228;51.022;6.764;2023-05-29T15:52:20;23.10;99.90
2435;DHT22;1228;51.022;6.764;2023-05-29T15:54:45;23.00;99.90
2435;DHT22;1228;51.022;6.764;2023-05-29T15:57:11;22.80;99.90
2435;DHT22;1228;51.022;6.764;2023-05-29T15:59:36;22.70;99.90
2435;DHT22;1228;51.022;6.764;2023-05-29T16:02:02;22.70;99.90
2435;DHT22;1228;51.022;6.764;2023-05-29T16:04:28;22.70;99.90
2435;DHT22;1228;51.022;6.764;2023-05-29T16:06:54;22.90;99.90
2435;DHT22;1228;51.022;6.764;2023-05-29T16:09:20;23.20;99.90
2435;DHT22;1228;51.022;6.764;2023-05-29T16:11:46;23.30;99.90
2435;DHT22;1228;51.022;6.764;2023-05-29T16:14:11;23.40;99.90
2435;DHT22;1228;51.022;6.764;2023-05-29T16:16:38;23.40;99.90
2435;DHT22;1228;51.022;6.764;2023-05-29T16:19:04;23.30;99.90
2435;DHT22;1228;51.022;6.764;2023-05-29T16:21:31;23.20;99.90
2435;DHT22;1228;51.022;6.764;2023-05-29T16:23:58;23.20;99.90
2435;DHT22;1228;51.022;6.764;2023-05-29T16:26:27;23.30;99.90
2435;DHT22;1228;51.022;6.764;2023-05-29T16:28:54;23.40;99.90